Time;durP1;ratioP1;P1;durP2;ratioP2;P2;SDS_P1;SDS_P2;PMS_P1;PMS_P2;Temp;Humidity;BMP_temperature;BMP_pressure;BME280_temperature;BME280_humidity;BME280_pressure;Samples;Min_cycle;Max_cycle;Signal;HPM_P1;HPM_P2
2023/03/31 00:00:47;;;;;;;;;;;12.10;99.90;;;;;;5006937;28;19921;-63
2023/03/31 00:03:20;;;;;;;;;;;12.10;99.90;;;;;;5010405;28;19959;-64
2023/03/31 00:05:47;;;;;;;;;;;12.10;99.90;;;;;;5006374;28;21994;-64
2023/03/31 00:08:12;;;;;;;;;;;12.00;99.90;;;;;;5008583;28;20280;-64
2023/03/31 00:10:44;;;;;;;;;;;12.00;99.90;;;;;;5003374;28;19968;-65
2023/03/31 00:13:10;;;;;;;;;;;11.90;99.90;;;;;;5012513;28;19914;-65
2023/03/31 00:15:35;;;;;;;;;;;11.90;99.90;;;;;;5006780;28;19925;-63
2023/03/31 00:18:01;;;;;;;;;;;11.90;99.90;;;;;;5010964;28;20083;-63
2023/03/31 00:20:27;;;;;;;;;;;11.90;99.90;;;;;;5003144;28;19913;-64
2023/03/31 00:22:53;;;;;;;;;;;11.90;99.90;;;;;;5006526;28;19914;-64
2023/03/31 00:25:19;;;;;;;;;;;11.90;99.90;;;;;;5007314;28;19928;-64
2023/03/31 00:27:45;;;;;;;;;;;12.00;99.90;;;;;;5005313;28;19917;-64
2023/03/31 00:30:12;;;;;;;;;;;12.10;99.90;;;;;;5004905;28;19914;-65
2023/03/31 00:32:37;;;;;;;;;;;12.00;99.90;;;;;;5005366;28;19917;-65
2023/03/31 00:35:03;;;;;;;;;;;12.00;99.90;;;;;;5002431;28;19944;-64
2023/03/31 00:37:29;;;;;;;;;;;12.00;99.90;;;;;;5007227;28;20047;-65
2023/03/31 00:39:55;;;;;;;;;;;12.00;99.90;;;;;;5005089;28;20057;-64
2023/03/31 00:42:21;;;;;;;;;;;12.00;99.90;;;;;;5009965;28;19913;-64
2023/03/31 00:45:05;;;;;;;;;;;11.90;99.90;;;;;;5005127;28;19955;-64
2023/03/31 00:47:30;;;;;;;;;;;11.90;99.90;;;;;;5007447;28;19952;-65
2023/03/31 00:49:56;;;;;;;;;;;11.80;99.90;;;;;;5006865;28;20095;-64
2023/03/31 00:52:24;;;;;;;;;;;11.80;99.90;;;;;;5010044;28;19914;-66
2023/03/31 00:54:52;;;;;;;;;;;11.80;99.90;;;;;;5007846;28;19925;-65
2023/03/31 00:57:18;;;;;;;;;;;11.80;99.90;;;;;;5006844;28;20310;-65
2023/03/31 00:59:49;;;;;;;;;;;11.70;99.90;;;;;;5008754;28;19910;-64
2023/03/31 01:02:16;;;;;;;;;;;11.70;99.90;;;;;;5009380;28;20437;-65
2023/03/31 01:04:53;;;;;;;;;;;11.60;99.90;;;;;;5008809;28;20717;-64
2023/03/31 01:07:22;;;;;;;;;;;11.60;99.90;;;;;;5009071;28;19959;-65
2023/03/31 01:09:49;;;;;;;;;;;11.70;99.90;;;;;;5005250;28;19909;-65
2023/03/31 01:12:16;;;;;;;;;;;11.70;99.90;;;;;;5011215;28;20310;-62
2023/03/31 01:14:42;;;;;;;;;;;11.60;99.90;;;;;;5007466;28;20367;-65
2023/03/31 01:17:08;;;;;;;;;;;11.50;99.90;;;;;;5010137;28;19972;-64
2023/03/31 01:19:44;;;;;;;;;;;11.60;99.90;;;;;;5006635;28;20004;-64
2023/03/31 01:22:31;;;;;;;;;;;11.50;99.90;;;;;;5005464;28;20048;-65
2023/03/31 01:25:15;;;;;;;;;;;11.50;99.90;;;;;;5003368;28;19924;-64
2023/03/31 01:28:00;;;;;;;;;;;11.50;99.90;;;;;;4995785;28;19918;-64
2023/03/31 01:30:25;;;;;;;;;;;11.40;99.90;;;;;;5002972;28;19952;-64
2023/03/31 01:32:54;;;;;;;;;;;11.40;99.90;;;;;;5005075;28;20158;-64
2023/03/31 01:35:38;;;;;;;;;;;11.40;99.90;;;;;;5001765;28;19953;-64
2023/03/31 01:38:15;;;;;;;;;;;11.40;99.90;;;;;;4997233;28;19921;-64
2023/03/31 01:41:03;;;;;;;;;;;11.40;99.90;;;;;;5002554;28;19998;-64
2023/03/31 01:43:54;;;;;;;;;;;11.40;99.90;;;;;;5006179;28;19928;-64
2023/03/31 01:46:27;;;;;;;;;;;11.50;99.90;;;;;;5007310;28;19956;-64
2023/03/31 01:48:59;;;;;;;;;;;11.40;99.90;;;;;;5005425;28;20350;-65
2023/03/31 01:51:27;;;;;;;;;;;11.40;99.90;;;;;;5007446;28;19913;-65
2023/03/31 01:53:58;;;;;;;;;;;11.50;99.90;;;;;;4995914;28;20356;-64
2023/03/31 01:56:26;;;;;;;;;;;11.50;99.90;;;;;;5006758;28;19944;-65
2023/03/31 01:58:56;;;;;;;;;;;11.60;99.90;;;;;;5003085;28;20044;-65
2023/03/31 02:01:28;;;;;;;;;;;11.60;99.90;;;;;;5002959;28;19922;-64
2023/03/31 02:04:06;;;;;;;;;;;11.60;99.90;;;;;;5003886;28;19920;-64
2023/03/31 02:06:34;;;;;;;;;;;11.60;99.90;;;;;;5007120;28;20423;-64
2023/03/31 02:09:02;;;;;;;;;;;11.60;99.90;;;;;;5000933;28;19913;-61
2023/03/31 02:11:28;;;;;;;;;;;11.60;99.90;;;;;;5011461;28;19930;-64
2023/03/31 02:13:55;;;;;;;;;;;11.50;99.90;;;;;;5004441;28;19913;-65
2023/03/31 02:16:23;;;;;;;;;;;11.50;99.90;;;;;;5006282;28;20424;-64
2023/03/31 02:18:51;;;;;;;;;;;11.50;99.90;;;;;;5006349;28;19918;-64
2023/03/31 02:21:18;;;;;;;;;;;11.50;99.90;;;;;;5006726;28;19924;-64
2023/03/31 02:23:43;;;;;;;;;;;11.40;99.90;;;;;;5003840;28;19918;-65
2023/03/31 02:26:12;;;;;;;;;;;11.30;99.90;;;;;;5007281;28;19936;-65
2023/03/31 02:28:37;;;;;;;;;;;11.40;99.90;;;;;;5002728;28;19914;-64
2023/03/31 02:31:06;;;;;;;;;;;11.30;99.90;;;;;;4999279;28;21125;-65
2023/03/31 02:33:32;;;;;;;;;;;11.30;99.90;;;;;;4999576;28;19929;-65
2023/03/31 02:35:58;;;;;;;;;;;11.30;99.90;;;;;;5004639;28;20375;-66
2023/03/31 02:38:23;;;;;;;;;;;11.30;99.90;;;;;;4997260;28;20012;-65
2023/03/31 02:40:49;;;;;;;;;;;11.30;99.90;;;;;;5004985;28;20124;-64
2023/03/31 02:43:14;;;;;;;;;;;11.20;99.90;;;;;;5005179;28;19992;-64
2023/03/31 02:45:43;;;;;;;;;;;11.20;99.90;;;;;;5003069;28;19920;-64
2023/03/31 02:48:10;;;;;;;;;;;11.10;99.90;;;;;;5004723;28;19921;-65
2023/03/31 02:50:48;;;;;;;;;;;11.10;99.90;;;;;;5004229;28;19917;-65
2023/03/31 02:53:29;;;;;;;;;;;11.10;99.90;;;;;;5004004;28;20390;-64
2023/03/31 02:55:56;;;;;;;;;;;11.10;99.90;;;;;;5004635;28;20075;-64
2023/03/31 02:58:39;;;;;;;;;;;11.10;99.90;;;;;;5000353;28;19932;-64
2023/03/31 03:01:09;;;;;;;;;;;11.10;99.90;;;;;;5002792;28;20295;-65
2023/03/31 03:03:52;;;;;;;;;;;11.10;99.90;;;;;;5002522;28;20021;-64
2023/03/31 03:06:36;;;;;;;;;;;11.10;99.90;;;;;;5002502;28;19913;-64
2023/03/31 03:09:05;;;;;;;;;;;11.10;99.90;;;;;;5002591;28;20055;-64
2023/03/31 03:11:37;;;;;;;;;;;10.90;99.90;;;;;;5004838;28;20331;-63
2023/03/31 03:14:17;;;;;;;;;;;10.90;99.90;;;;;;5002868;28;19918;-63
2023/03/31 03:16:45;;;;;;;;;;;10.90;99.90;;;;;;5003748;28;19921;-64
2023/03/31 03:19:16;;;;;;;;;;;10.90;99.90;;;;;;5001299;28;20392;-65
2023/03/31 03:21:43;;;;;;;;;;;10.90;99.90;;;;;;5005454;28;20016;-64
2023/03/31 03:24:08;;;;;;;;;;;10.70;99.90;;;;;;5003037;28;19921;-65
2023/03/31 03:26:34;;;;;;;;;;;10.70;99.90;;;;;;5009565;28;19920;-65
2023/03/31 03:28:59;;;;;;;;;;;10.70;99.90;;;;;;4999710;28;19914;-65
2023/03/31 03:31:24;;;;;;;;;;;10.80;99.90;;;;;;5010028;28;20003;-65
2023/03/31 03:33:50;;;;;;;;;;;10.80;99.90;;;;;;5004152;28;19925;-64
2023/03/31 03:36:16;;;;;;;;;;;10.80;99.90;;;;;;5009864;28;20303;-64
2023/03/31 03:38:42;;;;;;;;;;;10.90;99.90;;;;;;5003646;28;19926;-62
2023/03/31 03:41:07;;;;;;;;;;;10.90;99.90;;;;;;5008533;28;20338;-64
2023/03/31 03:43:33;;;;;;;;;;;10.90;99.90;;;;;;5002196;28;19913;-64
2023/03/31 03:45:58;;;;;;;;;;;10.90;99.90;;;;;;5004400;28;19921;-64
2023/03/31 03:48:25;;;;;;;;;;;10.90;99.90;;;;;;5001586;28;19921;-63
2023/03/31 03:50:52;;;;;;;;;;;10.90;99.90;;;;;;5009826;28;19920;-64
2023/03/31 03:53:17;;;;;;;;;;;10.90;99.90;;;;;;5003466;28;19921;-63
2023/03/31 03:55:44;;;;;;;;;;;10.90;99.90;;;;;;5002959;28;19925;-64
2023/03/31 03:58:09;;;;;;;;;;;10.90;99.90;;;;;;5005922;28;19917;-64
2023/03/31 04:00:35;;;;;;;;;;;10.90;99.90;;;;;;5006080;28;19924;-64
2023/03/31 04:03:01;;;;;;;;;;;11.00;99.90;;;;;;5008124;28;21809;-64
2023/03/31 04:05:26;;;;;;;;;;;11.00;99.90;;;;;;5006654;28;19921;-65
2023/03/31 04:07:51;;;;;;;;;;;11.00;99.90;;;;;;5009674;28;19923;-64
2023/03/31 04:10:17;;;;;;;;;;;11.10;99.90;;;;;;5006079;28;20016;-64
2023/03/31 04:12:42;;;;;;;;;;;11.10;99.90;;;;;;5001672;28;19917;-65
2023/03/31 04:15:08;;;;;;;;;;;11.10;99.90;;;;;;5003793;28;19921;-65
2023/03/31 04:17:35;;;;;;;;;;;11.00;99.90;;;;;;5006084;28;19925;-65
2023/03/31 04:20:04;;;;;;;;;;;11.10;99.90;;;;;;5004888;28;19963;-64
2023/03/31 04:22:33;;;;;;;;;;;11.10;99.90;;;;;;5008006;28;20016;-64
2023/03/31 04:24:59;;;;;;;;;;;11.00;99.90;;;;;;5003387;28;20383;-64
2023/03/31 04:27:28;;;;;;;;;;;11.00;99.90;;;;;;5004823;28;20523;-65
2023/03/31 04:29:53;;;;;;;;;;;11.00;99.90;;;;;;5002409;28;19921;-65
2023/03/31 04:32:23;;;;;;;;;;;11.00;99.90;;;;;;5002068;28;19913;-64
2023/03/31 04:35:01;;;;;;;;;;;11.00;99.90;;;;;;5001893;28;19921;-64
2023/03/31 04:37:33;;;;;;;;;;;11.00;99.90;;;;;;5003738;28;20730;-65
2023/03/31 04:40:06;;;;;;;;;;;10.90;99.90;;;;;;5000530;28;19925;-64
2023/03/31 04:42:32;;;;;;;;;;;10.90;99.90;;;;;;5002346;28;20376;-65
2023/03/31 04:44:57;;;;;;;;;;;10.80;99.90;;;;;;5003180;28;19913;-64
2023/03/31 04:47:22;;;;;;;;;;;10.80;99.90;;;;;;5011054;28;19983;-65
2023/03/31 04:49:48;;;;;;;;;;;10.90;99.90;;;;;;5008892;28;19913;-65
2023/03/31 04:52:13;;;;;;;;;;;10.80;99.90;;;;;;5001553;28;19921;-58
2023/03/31 04:54:39;;;;;;;;;;;10.80;99.90;;;;;;5000602;28;20021;-63
2023/03/31 04:57:04;;;;;;;;;;;10.80;99.90;;;;;;5000601;28;19956;-61
2023/03/31 04:59:30;;;;;;;;;;;10.80;99.90;;;;;;5008076;28;19964;-62
2023/03/31 05:01:55;;;;;;;;;;;10.80;99.90;;;;;;5005489;28;19967;-63
2023/03/31 05:04:21;;;;;;;;;;;10.80;99.90;;;;;;5005134;28;20031;-62
2023/03/31 05:06:46;;;;;;;;;;;10.80;99.90;;;;;;5003205;28;19917;-62
2023/03/31 05:09:12;;;;;;;;;;;10.80;99.90;;;;;;5008698;28;19922;-62
2023/03/31 05:11:38;;;;;;;;;;;10.80;99.90;;;;;;5008723;28;20346;-61
2023/03/31 05:14:03;;;;;;;;;;;10.80;99.90;;;;;;5005791;28;19925;-64
2023/03/31 05:16:29;;;;;;;;;;;10.90;99.90;;;;;;5011126;28;19948;-62
2023/03/31 05:18:54;;;;;;;;;;;10.90;99.90;;;;;;5007426;28;19921;-63
2023/03/31 05:21:20;;;;;;;;;;;10.90;99.90;;;;;;5007923;28;19918;-61
2023/03/31 05:23:46;;;;;;;;;;;10.90;99.90;;;;;;5004764;28;20356;-61
2023/03/31 05:26:12;;;;;;;;;;;10.90;99.90;;;;;;5003867;28;19957;-60
2023/03/31 05:28:37;;;;;;;;;;;11.00;99.90;;;;;;5009795;28;19913;-62
2023/03/31 05:31:03;;;;;;;;;;;11.00;99.90;;;;;;5003229;28;19928;-60
2023/03/31 05:33:29;;;;;;;;;;;11.20;99.90;;;;;;5005466;28;21503;-60
2023/03/31 05:35:54;;;;;;;;;;;11.20;99.90;;;;;;5002805;28;20358;-59
2023/03/31 05:38:20;;;;;;;;;;;11.10;99.90;;;;;;5002001;28;19929;-64
2023/03/31 05:40:46;;;;;;;;;;;11.10;99.90;;;;;;5001556;28;19917;-62
2023/03/31 05:43:12;;;;;;;;;;;11.10;99.90;;;;;;5006297;28;19924;-62
2023/03/31 05:45:37;;;;;;;;;;;11.10;99.90;;;;;;5008305;28;19917;-62
2023/03/31 05:48:03;;;;;;;;;;;11.10;99.90;;;;;;5004318;28;20454;-61
2023/03/31 05:50:28;;;;;;;;;;;11.10;99.90;;;;;;5006154;28;20280;-63
2023/03/31 05:52:54;;;;;;;;;;;11.10;99.90;;;;;;5009332;28;19918;-61
2023/03/31 05:55:19;;;;;;;;;;;11.10;99.90;;;;;;5004395;28;20008;-60
2023/03/31 05:57:44;;;;;;;;;;;11.20;99.90;;;;;;5006669;28;20303;-62
2023/03/31 06:00:10;;;;;;;;;;;11.40;99.90;;;;;;5007536;28;19967;-62
2023/03/31 06:02:36;;;;;;;;;;;11.50;99.90;;;;;;5010632;28;20363;-60
2023/03/31 06:05:02;;;;;;;;;;;11.50;99.90;;;;;;5009562;28;20453;-60
2023/03/31 06:07:28;;;;;;;;;;;11.60;99.90;;;;;;5010236;28;19914;-61
2023/03/31 06:09:53;;;;;;;;;;;11.60;99.90;;;;;;5006969;28;20296;-62
2023/03/31 06:12:19;;;;;;;;;;;11.60;99.90;;;;;;5009972;28;19913;-59
2023/03/31 06:14:44;;;;;;;;;;;11.60;99.90;;;;;;5007631;28;19961;-60
2023/03/31 06:17:10;;;;;;;;;;;11.60;99.90;;;;;;5005956;28;20012;-62
2023/03/31 06:19:35;;;;;;;;;;;11.60;99.90;;;;;;5008786;28;19918;-60
2023/03/31 06:22:01;;;;;;;;;;;11.60;99.90;;;;;;5009126;28;19925;-62
2023/03/31 06:24:26;;;;;;;;;;;11.60;99.90;;;;;;5006229;28;19913;-61
2023/03/31 06:26:52;;;;;;;;;;;11.60;99.90;;;;;;5002433;28;19924;-62
2023/03/31 06:29:17;;;;;;;;;;;11.50;99.90;;;;;;5002373;28;20012;-62
2023/03/31 06:31:43;;;;;;;;;;;11.40;99.90;;;;;;5007471;28;19913;-63
2023/03/31 06:34:08;;;;;;;;;;;11.30;99.90;;;;;;5006291;28;19913;-63
2023/03/31 06:36:34;;;;;;;;;;;11.20;99.90;;;;;;5001504;28;19972;-62
2023/03/31 06:39:00;;;;;;;;;;;11.20;99.90;;;;;;5005255;28;19924;-61
2023/03/31 06:41:26;;;;;;;;;;;11.20;99.90;;;;;;5006562;28;19913;-61
2023/03/31 06:43:51;;;;;;;;;;;11.20;99.90;;;;;;5009155;28;19924;-63
2023/03/31 06:46:17;;;;;;;;;;;11.30;99.90;;;;;;5012267;28;19921;-62
2023/03/31 06:48:42;;;;;;;;;;;11.30;99.90;;;;;;5007823;28;19917;-65
2023/03/31 06:51:08;;;;;;;;;;;11.30;99.90;;;;;;5002807;28;19964;-61
2023/03/31 06:53:34;;;;;;;;;;;11.30;99.90;;;;;;5006015;28;20394;-61
2023/03/31 06:56:00;;;;;;;;;;;11.40;99.90;;;;;;5003703;28;19932;-61
2023/03/31 06:58:25;;;;;;;;;;;11.40;99.90;;;;;;5007663;28;19917;-61
2023/03/31 07:00:51;;;;;;;;;;;11.40;99.90;;;;;;5010771;28;19913;-62
2023/03/31 07:03:21;;;;;;;;;;;11.50;99.90;;;;;;5009974;28;19914;-61
2023/03/31 07:05:47;;;;;;;;;;;11.70;99.90;;;;;;5013378;28;19921;-63
2023/03/31 07:08:13;;;;;;;;;;;11.80;99.90;;;;;;5013090;28;20304;-62
2023/03/31 07:10:38;;;;;;;;;;;11.80;99.90;;;;;;5010712;28;19920;-62
2023/03/31 07:13:03;;;;;;;;;;;11.90;99.90;;;;;;5009228;28;19983;-61
2023/03/31 07:15:29;;;;;;;;;;;12.00;99.90;;;;;;5013391;28;19916;-62
2023/03/31 07:18:01;;;;;;;;;;;11.90;99.90;;;;;;5008918;28;19999;-61
2023/03/31 07:20:27;;;;;;;;;;;12.00;99.90;;;;;;5009310;28;19941;-61
2023/03/31 07:22:52;;;;;;;;;;;12.10;99.90;;;;;;5009325;28;20367;-62
2023/03/31 07:25:19;;;;;;;;;;;12.10;99.90;;;;;;5010857;28;21374;-61
2023/03/31 07:27:45;;;;;;;;;;;12.10;99.90;;;;;;5011168;28;20020;-62
2023/03/31 07:30:14;;;;;;;;;;;12.10;99.90;;;;;;5008749;28;19968;-61
2023/03/31 07:32:40;;;;;;;;;;;12.10;99.90;;;;;;5011220;28;19917;-65
2023/03/31 07:35:06;;;;;;;;;;;12.10;99.90;;;;;;5013136;28;19910;-60
2023/03/31 07:37:38;;;;;;;;;;;12.10;99.90;;;;;;5009632;28;20066;-60
2023/03/31 07:40:05;;;;;;;;;;;12.20;99.90;;;;;;5006828;28;19921;-60
2023/03/31 07:42:30;;;;;;;;;;;12.30;99.90;;;;;;5006149;28;19914;-64
2023/03/31 07:44:56;;;;;;;;;;;12.40;99.90;;;;;;5007047;28;20535;-62
2023/03/31 07:47:23;;;;;;;;;;;12.50;99.90;;;;;;5007248;28;20298;-62
2023/03/31 07:49:49;;;;;;;;;;;12.50;99.90;;;;;;5012129;28;19940;-62
2023/03/31 07:52:15;;;;;;;;;;;12.60;99.90;;;;;;5010610;28;19972;-63
2023/03/31 07:54:40;;;;;;;;;;;12.70;99.90;;;;;;5009506;28;19913;-61
2023/03/31 07:57:07;;;;;;;;;;;12.70;99.90;;;;;;5007828;28;19928;-60
2023/03/31 07:59:32;;;;;;;;;;;12.80;99.90;;;;;;5008546;28;19936;-60
2023/03/31 08:01:58;;;;;;;;;;;12.90;99.90;;;;;;5007492;28;20407;-63
2023/03/31 08:04:23;;;;;;;;;;;13.00;99.90;;;;;;5008631;28;19913;-61
2023/03/31 08:06:50;;;;;;;;;;;13.00;99.90;;;;;;5008089;28;19960;-59
2023/03/31 08:09:16;;;;;;;;;;;13.00;99.90;;;;;;5008906;28;19918;-63
2023/03/31 08:11:42;;;;;;;;;;;13.10;99.90;;;;;;5007194;28;19921;-61
2023/03/31 08:14:07;;;;;;;;;;;13.10;99.90;;;;;;5006757;28;20383;-62
2023/03/31 08:16:33;;;;;;;;;;;13.10;99.90;;;;;;5008251;28;19913;-60
2023/03/31 08:18:58;;;;;;;;;;;13.10;99.90;;;;;;5007182;28;19953;-60
2023/03/31 08:21:24;;;;;;;;;;;13.20;99.90;;;;;;5007742;28;19925;-61
2023/03/31 08:23:52;;;;;;;;;;;13.30;99.90;;;;;;5009496;28;20358;-61
2023/03/31 08:26:17;;;;;;;;;;;13.30;99.90;;;;;;5007435;28;19920;-63
2023/03/31 08:28:43;;;;;;;;;;;13.30;99.90;;;;;;5011391;28;19914;-61
2023/03/31 08:31:09;;;;;;;;;;;13.40;99.90;;;;;;5009833;28;19913;-62
2023/03/31 08:33:35;;;;;;;;;;;13.40;99.90;;;;;;5009153;28;20285;-63
2023/03/31 08:36:02;;;;;;;;;;;13.50;99.90;;;;;;5010085;28;20283;-61
2023/03/31 08:38:28;;;;;;;;;;;13.60;99.90;;;;;;5009637;28;19917;-62
2023/03/31 08:41:00;;;;;;;;;;;13.50;99.90;;;;;;5008734;28;20470;-63
2023/03/31 08:43:28;;;;;;;;;;;13.60;99.90;;;;;;5011045;28;20376;-61
2023/03/31 08:45:53;;;;;;;;;;;13.60;99.90;;;;;;5009470;28;20030;-61
2023/03/31 08:48:29;;;;;;;;;;;13.60;99.90;;;;;;5007210;28;19979;-64
2023/03/31 08:50:59;;;;;;;;;;;13.60;99.90;;;;;;5010454;28;19914;-64
2023/03/31 08:53:30;;;;;;;;;;;13.70;99.90;;;;;;5004958;28;20290;-62
2023/03/31 08:55:56;;;;;;;;;;;13.70;99.90;;;;;;5001476;28;20394;-63
2023/03/31 08:58:44;;;;;;;;;;;13.80;99.90;;;;;;5009325;28;19921;-63
2023/03/31 09:01:24;;;;;;;;;;;14.00;99.90;;;;;;5008182;28;19913;-63
2023/03/31 09:03:50;;;;;;;;;;;13.90;99.90;;;;;;5006094;28;19985;-63
2023/03/31 09:06:23;;;;;;;;;;;14.10;99.90;;;;;;5009553;28;19961;-64
2023/03/31 09:08:50;;;;;;;;;;;14.20;99.90;;;;;;5009745;28;19914;-61
2023/03/31 09:11:17;;;;;;;;;;;14.30;99.90;;;;;;5001813;28;19918;-61
2023/03/31 09:13:49;;;;;;;;;;;14.60;99.90;;;;;;5002541;28;19960;-61
2023/03/31 09:16:17;;;;;;;;;;;14.60;99.90;;;;;;5006403;28;19922;-61
2023/03/31 09:18:45;;;;;;;;;;;14.60;99.90;;;;;;5005846;28;19932;-60
2023/03/31 09:21:14;;;;;;;;;;;14.70;99.90;;;;;;5005352;28;19928;-63
2023/03/31 09:23:45;;;;;;;;;;;14.80;99.90;;;;;;5009926;28;20297;-61
2023/03/31 09:26:21;;;;;;;;;;;15.00;99.90;;;;;;5003574;28;19914;-62
2023/03/31 09:28:47;;;;;;;;;;;15.30;99.90;;;;;;5009875;28;19918;-63
2023/03/31 09:31:14;;;;;;;;;;;15.40;99.90;;;;;;5006855;28;20008;-65
2023/03/31 09:33:43;;;;;;;;;;;15.10;99.90;;;;;;5005728;28;20367;-57
2023/03/31 09:36:13;;;;;;;;;;;14.90;99.90;;;;;;5007171;28;19913;-64
2023/03/31 09:38:40;;;;;;;;;;;14.90;99.90;;;;;;5006881;28;19956;-62
2023/03/31 09:41:06;;;;;;;;;;;14.70;99.90;;;;;;5004965;28;19913;-61
2023/03/31 09:43:34;;;;;;;;;;;14.40;99.90;;;;;;5009767;28;20280;-62
2023/03/31 09:46:00;;;;;;;;;;;14.00;99.90;;;;;;5006982;28;19932;-61
2023/03/31 09:48:27;;;;;;;;;;;13.60;99.90;;;;;;4999508;28;19913;-64
2023/03/31 09:51:04;;;;;;;;;;;13.50;99.90;;;;;;4999175;28;19914;-62
2023/03/31 09:53:42;;;;;;;;;;;13.70;99.90;;;;;;5006520;28;19936;-62
2023/03/31 09:56:10;;;;;;;;;;;14.00;99.90;;;;;;5002416;28;19918;-61
2023/03/31 09:58:43;;;;;;;;;;;14.30;99.90;;;;;;5002158;28;19928;-64
2023/03/31 10:01:10;;;;;;;;;;;14.50;99.90;;;;;;5000370;28;20441;-65
2023/03/31 10:03:45;;;;;;;;;;;14.70;99.90;;;;;;5000563;28;19922;-65
2023/03/31 10:06:13;;;;;;;;;;;14.70;99.90;;;;;;5004236;28;20338;-64
2023/03/31 10:08:50;;;;;;;;;;;14.80;99.90;;;;;;5007983;28;19917;-60
2023/03/31 10:11:16;;;;;;;;;;;14.70;99.90;;;;;;5003359;28;19921;-64
2023/03/31 10:13:57;;;;;;;;;;;14.80;99.90;;;;;;5007163;28;19920;-62
2023/03/31 10:16:27;;;;;;;;;;;14.80;99.90;;;;;;5004464;28;19935;-63
2023/03/31 10:18:53;;;;;;;;;;;14.80;99.90;;;;;;5006393;28;19921;-63
2023/03/31 10:21:20;;;;;;;;;;;14.80;99.90;;;;;;5006179;28;19952;-63
2023/03/31 10:23:47;;;;;;;;;;;14.80;99.90;;;;;;5002339;28;19918;-63
2023/03/31 10:26:15;;;;;;;;;;;14.90;99.90;;;;;;5002731;28;19924;-62
2023/03/31 10:28:41;;;;;;;;;;;15.00;99.90;;;;;;5005259;28;20005;-59
2023/03/31 10:31:07;;;;;;;;;;;15.10;99.90;;;;;;5008550;28;20000;-60
2023/03/31 10:33:37;;;;;;;;;;;15.20;99.90;;;;;;5002273;28;19964;-63
2023/03/31 10:36:17;;;;;;;;;;;15.20;99.90;;;;;;5004444;28;19921;-63
2023/03/31 10:38:43;;;;;;;;;;;15.40;99.90;;;;;;5006504;28;19947;-65
2023/03/31 10:41:09;;;;;;;;;;;15.60;99.90;;;;;;5005599;28;19913;-64
2023/03/31 10:43:42;;;;;;;;;;;15.60;99.90;;;;;;5001418;28;20596;-64
2023/03/31 10:46:08;;;;;;;;;;;15.60;99.90;;;;;;5006491;28;19913;-61
2023/03/31 10:48:37;;;;;;;;;;;15.80;99.90;;;;;;5003937;28;19921;-64
2023/03/31 10:51:04;;;;;;;;;;;15.70;99.90;;;;;;5000387;28;19918;-62
2023/03/31 10:53:38;;;;;;;;;;;15.40;99.90;;;;;;5003399;28;19939;-64
2023/03/31 10:56:12;;;;;;;;;;;15.40;99.90;;;;;;5003057;28;19920;-60
2023/03/31 10:58:56;;;;;;;;;;;15.20;99.90;;;;;;5001884;28;20020;-60
2023/03/31 11:01:30;;;;;;;;;;;15.20;99.90;;;;;;5007169;28;19914;-63
2023/03/31 11:04:14;;;;;;;;;;;15.30;99.90;;;;;;5005828;28;20437;-65
2023/03/31 11:07:04;;;;;;;;;;;15.10;99.90;;;;;;4990240;28;20291;-63
2023/03/31 11:09:40;;;;;;;;;;;15.10;99.90;;;;;;5003149;28;19964;-62
2023/03/31 11:12:14;;;;;;;;;;;15.00;99.90;;;;;;4999518;28;20086;-64
2023/03/31 11:14:43;;;;;;;;;;;14.80;99.90;;;;;;4999093;28;20378;-62
2023/03/31 11:17:19;;;;;;;;;;;14.70;99.90;;;;;;5002383;28;19914;-63
2023/03/31 11:19:48;;;;;;;;;;;14.90;99.90;;;;;;5007210;28;19914;-61
2023/03/31 11:22:31;;;;;;;;;;;14.90;99.90;;;;;;4998124;28;19953;-62
2023/03/31 11:25:03;;;;;;;;;;;14.80;99.90;;;;;;5004754;28;19959;-63
2023/03/31 11:27:40;;;;;;;;;;;14.70;99.90;;;;;;5004688;28;19914;-61
2023/03/31 11:30:24;;;;;;;;;;;14.60;99.90;;;;;;5006028;28;19920;-64
2023/03/31 11:33:16;;;;;;;;;;;14.70;99.90;;;;;;5005005;28;19913;-62
2023/03/31 11:35:45;;;;;;;;;;;14.70;99.90;;;;;;4995783;28;19929;-63
2023/03/31 11:38:23;;;;;;;;;;;14.70;99.90;;;;;;4998424;28;19929;-60
2023/03/31 11:40:57;;;;;;;;;;;14.50;99.90;;;;;;5002516;28;19920;-62
2023/03/31 11:43:29;;;;;;;;;;;14.50;99.90;;;;;;4997450;28;19917;-63
2023/03/31 11:45:59;;;;;;;;;;;14.70;99.90;;;;;;5008993;28;20064;-63
2023/03/31 11:48:25;;;;;;;;;;;14.80;99.90;;;;;;5004668;28;20391;-61
2023/03/31 11:50:51;;;;;;;;;;;14.80;99.90;;;;;;5003716;28;19960;-61
2023/03/31 11:53:19;;;;;;;;;;;14.80;99.90;;;;;;5007254;28;19917;-60
2023/03/31 11:55:47;;;;;;;;;;;15.00;99.90;;;;;;5002420;28;19953;-60
2023/03/31 11:58:17;;;;;;;;;;;15.00;99.90;;;;;;5003834;28;19926;-63
2023/03/31 12:00:49;;;;;;;;;;;14.90;99.90;;;;;;5009522;28;19960;-62
2023/03/31 12:03:20;;;;;;;;;;;14.90;99.90;;;;;;5007133;28;19929;-62
2023/03/31 12:06:18;;;;;;;;;;;14.70;99.90;;;;;;5007319;28;20012;-61
2023/03/31 12:09:03;;;;;;;;;;;14.60;99.90;;;;;;5002139;28;19933;-60
2023/03/31 12:11:35;;;;;;;;;;;14.60;99.90;;;;;;5007856;28;19921;-60
2023/03/31 12:14:10;;;;;;;;;;;14.60;99.90;;;;;;5006388;28;19918;-62
2023/03/31 12:16:46;;;;;;;;;;;14.80;99.90;;;;;;5006623;28;19940;-62
2023/03/31 12:19:21;;;;;;;;;;;15.10;99.90;;;;;;5008900;28;20495;-63
2023/03/31 12:21:51;;;;;;;;;;;15.30;99.90;;;;;;5002756;28;19918;-61
2023/03/31 12:24:17;;;;;;;;;;;15.60;99.90;;;;;;5008544;28;19913;-60
2023/03/31 12:26:52;;;;;;;;;;;15.90;99.90;;;;;;5008921;28;20307;-63
2023/03/31 12:29:24;;;;;;;;;;;16.00;99.90;;;;;;5003071;28;19917;-61
2023/03/31 12:31:52;;;;;;;;;;;16.00;99.90;;;;;;5007424;28;19925;-60
2023/03/31 12:34:18;;;;;;;;;;;15.90;99.90;;;;;;5000257;28;19913;-62
2023/03/31 12:36:44;;;;;;;;;;;15.80;99.90;;;;;;5008842;28;20006;-61
2023/03/31 12:39:24;;;;;;;;;;;15.70;99.90;;;;;;5004405;28;20082;-59
2023/03/31 12:42:00;;;;;;;;;;;15.80;99.90;;;;;;5003615;28;20458;-63
2023/03/31 12:44:28;;;;;;;;;;;16.00;99.90;;;;;;5003205;28;20391;-61
2023/03/31 12:47:03;;;;;;;;;;;16.20;99.90;;;;;;5007193;28;19928;-63
2023/03/31 12:49:31;;;;;;;;;;;16.20;99.90;;;;;;5007241;28;20371;-62
2023/03/31 12:51:59;;;;;;;;;;;15.90;99.90;;;;;;5003170;28;19952;-63
2023/03/31 12:54:43;;;;;;;;;;;15.80;99.90;;;;;;5006038;28;19925;-61
2023/03/31 12:57:09;;;;;;;;;;;15.60;99.90;;;;;;4999352;28;20020;-62
2023/03/31 12:59:40;;;;;;;;;;;15.70;99.90;;;;;;5004811;28;20000;-59
2023/03/31 13:02:08;;;;;;;;;;;15.50;99.90;;;;;;5006935;28;19913;-65
2023/03/31 13:04:35;;;;;;;;;;;15.20;99.90;;;;;;5004148;28;19952;-61
2023/03/31 13:07:01;;;;;;;;;;;14.90;99.90;;;;;;5007011;28;20000;-60
2023/03/31 13:09:30;;;;;;;;;;;14.60;99.90;;;;;;5001520;28;20047;-60
2023/03/31 13:11:55;;;;;;;;;;;14.50;99.90;;;;;;5005751;28;19913;-59
2023/03/31 13:14:37;;;;;;;;;;;14.40;99.90;;;;;;5005878;28;19987;-60
2023/03/31 13:17:21;;;;;;;;;;;14.30;99.90;;;;;;5004697;28;19922;-63
2023/03/31 13:19:47;;;;;;;;;;;14.10;99.90;;;;;;5001452;28;19953;-63
2023/03/31 13:22:31;;;;;;;;;;;13.90;99.90;;;;;;4998665;28;19972;-64
2023/03/31 13:25:15;;;;;;;;;;;13.90;99.90;;;;;;4999871;28;19918;-61
2023/03/31 13:27:47;;;;;;;;;;;13.90;99.90;;;;;;4989546;28;19929;-61
2023/03/31 13:30:45;;;;;;;;;;;14.00;99.90;;;;;;4997786;28;19937;-63
2023/03/31 13:33:18;;;;;;;;;;;14.10;99.90;;;;;;4999367;28;19914;-60
2023/03/31 13:35:46;;;;;;;;;;;14.20;99.90;;;;;;5003973;28;19917;-62
2023/03/31 13:38:30;;;;;;;;;;;14.40;99.90;;;;;;5001965;28;20020;-60
2023/03/31 13:41:02;;;;;;;;;;;14.50;99.90;;;;;;5003976;28;19929;-60
2023/03/31 13:43:27;;;;;;;;;;;14.70;99.90;;;;;;5001883;28;19913;-63
2023/03/31 13:46:12;;;;;;;;;;;14.80;99.90;;;;;;5006578;28;19913;-59
2023/03/31 13:48:47;;;;;;;;;;;14.70;99.90;;;;;;5000346;28;19921;-63
2023/03/31 13:51:22;;;;;;;;;;;14.80;99.90;;;;;;5003898;28;20011;-63
2023/03/31 13:54:02;;;;;;;;;;;15.00;99.90;;;;;;5003757;28;19971;-62
2023/03/31 13:56:46;;;;;;;;;;;15.10;99.90;;;;;;5002228;28;19921;-61
2023/03/31 13:59:17;;;;;;;;;;;15.30;99.90;;;;;;5001920;28;19917;-62
2023/03/31 14:01:52;;;;;;;;;;;15.30;99.90;;;;;;5005207;28;19917;-61
2023/03/31 14:04:17;;;;;;;;;;;15.50;99.90;;;;;;5003937;28;19921;-62
2023/03/31 14:06:48;;;;;;;;;;;15.60;99.90;;;;;;5005284;28;19967;-63
2023/03/31 14:09:22;;;;;;;;;;;15.50;99.90;;;;;;4998068;28;19918;-63
2023/03/31 14:11:49;;;;;;;;;;;15.50;99.90;;;;;;5004117;28;19913;-63
2023/03/31 14:14:15;;;;;;;;;;;15.40;99.90;;;;;;5001360;28;19920;-60
2023/03/31 14:16:49;;;;;;;;;;;15.40;99.90;;;;;;5000709;28;20501;-59
2023/03/31 14:19:33;;;;;;;;;;;15.30;99.90;;;;;;4999303;28;19924;-63
2023/03/31 14:22:04;;;;;;;;;;;15.20;99.90;;;;;;5004256;28;19978;-62
2023/03/31 14:24:33;;;;;;;;;;;15.20;99.90;;;;;;5000647;28;20299;-62
2023/03/31 14:26:58;;;;;;;;;;;15.30;99.90;;;;;;4997494;28;19929;-63
2023/03/31 14:29:42;;;;;;;;;;;15.30;99.90;;;;;;5000484;28;19914;-62